createdAt,value
2022-10-19T00:02:12.591Z,5.53
2022-10-19T00:04:41.111Z,6.13
2022-10-19T00:07:09.730Z,6.37
2022-10-19T00:09:38.320Z,4.97
2022-10-19T00:12:07.410Z,4.50
2022-10-19T00:14:35.900Z,4.57
2022-10-19T00:17:05.949Z,5.77
2022-10-19T00:19:34.514Z,8.90
2022-10-19T00:22:02.945Z,6.00
2022-10-19T00:24:31.657Z,5.37
2022-10-19T00:27:19.236Z,6.40
2022-10-19T00:29:47.976Z,6.80
2022-10-19T00:32:17.933Z,5.97
2022-10-19T00:35:41.260Z,5.33
2022-10-19T00:38:09.856Z,5.23
2022-10-19T00:40:39.864Z,6.97
2022-10-19T00:43:15.312Z,9.57
2022-10-19T00:45:44.373Z,5.10
2022-10-19T00:48:19.937Z,5.20
2022-10-19T00:50:54.404Z,7.90
2022-10-19T00:53:24.915Z,10.10
2022-10-19T00:55:53.790Z,5.63
2022-10-19T00:58:22.527Z,5.50
2022-10-19T01:01:20.085Z,5.83
2022-10-19T01:04:15.861Z,5.27
2022-10-19T01:06:44.539Z,5.63
2022-10-19T01:09:13.274Z,5.67
2022-10-19T01:11:52.345Z,6.67
2022-10-19T01:14:37.891Z,5.07
2022-10-19T01:17:20.999Z,5.50
2022-10-19T01:20:33.966Z,4.97
2022-10-19T01:23:31.496Z,5.07
2022-10-19T01:26:22.737Z,4.47
2022-10-19T01:29:41.948Z,8.43
2022-10-19T01:32:24.297Z,8.97
2022-10-19T01:35:04.360Z,8.73
2022-10-19T01:37:43.976Z,4.97
2022-10-19T01:40:28.757Z,5.63
2022-10-19T01:43:04.192Z,7.50
2022-10-19T01:45:42.681Z,7.47
2022-10-19T01:48:18.931Z,6.90
2022-10-19T01:50:58.377Z,6.40
2022-10-19T01:53:34.212Z,5.73
2022-10-19T01:56:06.086Z,7.00
2022-10-19T01:58:38.863Z,5.97
2022-10-19T02:01:12.200Z,6.83
2022-10-19T02:03:43.206Z,7.80
2022-10-19T02:06:14.072Z,6.23
2022-10-19T02:08:48.687Z,7.47
2022-10-19T02:11:18.059Z,9.17
2022-10-19T02:13:49.587Z,8.83
2022-10-19T02:16:25.076Z,7.00
2022-10-19T02:18:57.000Z,8.03
2022-10-19T02:21:25.955Z,10.63
2022-10-19T02:23:54.722Z,11.50
2022-10-19T02:26:24.150Z,14.73
2022-10-19T02:28:54.656Z,9.30
2022-10-19T02:31:24.371Z,5.63
2022-10-19T02:33:55.330Z,8.20
2022-10-19T02:36:24.530Z,7.10
2022-10-19T02:39:18.313Z,10.37
2022-10-19T02:41:55.865Z,6.83
2022-10-19T02:44:31.413Z,7.27
2022-10-19T02:47:07.596Z,6.27
2022-10-19T02:49:40.068Z,6.63
2022-10-19T02:52:11.235Z,6.93
2022-10-19T02:54:43.207Z,7.37
2022-10-19T02:57:18.815Z,5.87
2022-10-19T03:00:13.536Z,5.73
2022-10-19T03:02:54.101Z,5.57
2022-10-19T03:05:24.250Z,11.67
2022-10-19T03:07:52.825Z,5.10
2022-10-19T03:10:21.276Z,6.13
2022-10-19T03:12:49.925Z,6.90
2022-10-19T03:15:19.425Z,6.27
2022-10-19T03:17:48.050Z,6.60
2022-10-19T03:20:16.876Z,6.23
2022-10-19T03:23:25.408Z,8.90
2022-10-19T03:25:53.871Z,6.60
2022-10-19T03:28:22.555Z,7.30
2022-10-19T03:30:51.103Z,7.23
2022-10-19T03:33:19.952Z,7.10
2022-10-19T03:35:48.462Z,6.87
2022-10-19T03:38:17.088Z,6.53
2022-10-19T03:40:47.259Z,4.73
2022-10-19T03:43:15.742Z,5.37
2022-10-19T03:45:47.777Z,7.07
2022-10-19T03:48:19.569Z,5.53
2022-10-19T03:50:48.451Z,8.37
2022-10-19T03:53:17.292Z,7.60
2022-10-19T03:55:47.298Z,5.43
2022-10-19T03:58:15.806Z,6.20
2022-10-19T04:00:44.507Z,10.43
2022-10-19T04:03:16.056Z,6.53
2022-10-19T04:05:44.621Z,6.43
2022-10-19T04:08:13.221Z,8.60
2022-10-19T04:10:41.831Z,4.93
2022-10-19T04:13:12.224Z,6.10
2022-10-19T04:15:41.249Z,5.97
2022-10-19T04:18:09.847Z,10.43
2022-10-19T04:20:42.270Z,6.13
2022-10-19T04:25:51.090Z,5.80
2022-10-19T04:28:21.292Z,7.83
2022-10-19T04:30:49.916Z,5.27
2022-10-19T04:33:18.402Z,6.10
2022-10-19T04:35:47.275Z,5.17
2022-10-19T04:38:15.981Z,7.13
2022-10-19T04:40:44.462Z,7.73
2022-10-19T04:43:12.904Z,6.73
2022-10-19T04:45:43.232Z,7.97
2022-10-19T04:48:15.007Z,8.10
2022-10-19T04:50:43.898Z,6.57
2022-10-19T04:53:12.730Z,8.93
2022-10-19T04:55:43.516Z,8.20
2022-10-19T04:58:12.300Z,7.57
2022-10-19T05:00:42.859Z,7.17
2022-10-19T05:03:11.624Z,6.83
2022-10-19T05:05:40.093Z,6.27
2022-10-19T05:08:11.225Z,6.87
2022-10-19T05:10:42.159Z,6.87
2022-10-19T05:13:14.046Z,8.87
2022-10-19T05:15:43.953Z,6.90
2022-10-19T05:18:12.587Z,6.17
2022-10-19T05:20:41.053Z,10.50
2022-10-19T05:23:09.895Z,10.10
2022-10-19T05:25:38.351Z,7.07
2022-10-19T05:28:06.838Z,8.07
2022-10-19T05:30:35.510Z,8.50
2022-10-19T05:33:05.482Z,11.43
2022-10-19T05:35:33.999Z,8.43
2022-10-19T05:38:02.697Z,5.77
2022-10-19T05:40:31.142Z,6.20
2022-10-19T05:42:59.620Z,6.23
2022-10-19T05:45:28.106Z,6.97
2022-10-19T05:47:56.849Z,7.10
2022-10-19T05:50:57.459Z,6.43
2022-10-19T05:53:26.026Z,7.50
2022-10-19T05:55:54.592Z,6.60
2022-10-19T05:58:23.522Z,8.77
2022-10-19T06:00:57.275Z,7.70
2022-10-19T06:03:27.100Z,5.50
2022-10-19T06:05:59.108Z,8.17
2022-10-19T06:08:27.947Z,5.73
2022-10-19T06:11:07.224Z,11.83
2022-10-19T06:13:35.799Z,10.67
2022-10-19T06:16:05.235Z,7.23
2022-10-19T06:18:34.368Z,9.13
2022-10-19T06:21:07.522Z,9.80
2022-10-19T06:23:37.326Z,8.63
2022-10-19T06:26:32.107Z,12.63
2022-10-19T06:29:02.925Z,8.23
2022-10-19T06:31:33.657Z,21.27
2022-10-19T06:34:02.678Z,14.97
2022-10-19T06:36:33.290Z,14.30
2022-10-19T06:39:02.868Z,14.20
2022-10-19T06:41:32.548Z,13.60
2022-10-19T06:44:01.105Z,13.37
2022-10-19T06:46:29.857Z,11.70
2022-10-19T06:49:00.575Z,12.40
2022-10-19T06:51:34.178Z,10.50
2022-10-19T06:54:02.785Z,14.80
2022-10-19T06:56:31.735Z,12.07
2022-10-19T06:59:00.808Z,10.17
2022-10-19T07:01:29.809Z,8.43
2022-10-19T07:03:58.512Z,8.70
2022-10-19T07:06:29.360Z,7.13
2022-10-19T07:08:59.358Z,10.93
2022-10-19T07:11:27.926Z,9.23
2022-10-19T07:13:56.428Z,11.57
2022-10-19T07:16:25.091Z,16.03
2022-10-19T07:18:54.925Z,12.50
2022-10-19T07:21:24.630Z,9.60
2022-10-19T07:23:53.221Z,13.83
2022-10-19T07:26:27.410Z,22.00
2022-10-19T07:28:58.686Z,15.33
2022-10-19T07:31:30.274Z,22.97
2022-10-19T07:34:00.919Z,16.23
2022-10-19T07:36:31.985Z,39.80
2022-10-19T07:39:02.379Z,16.67
2022-10-19T07:41:32.267Z,11.40
2022-10-19T07:44:00.762Z,11.50
2022-10-19T07:46:33.506Z,17.17
2022-10-19T07:49:02.752Z,14.20
2022-10-19T07:51:31.399Z,17.10
2022-10-19T07:54:00.182Z,18.50
2022-10-19T07:56:55.238Z,17.13
2022-10-19T07:59:23.690Z,15.80
2022-10-19T08:01:53.697Z,12.63
2022-10-19T08:07:11.469Z,14.57
2022-10-19T08:09:52.868Z,16.57
2022-10-19T08:12:23.610Z,15.03
2022-10-19T08:14:52.174Z,21.43
2022-10-19T08:17:20.669Z,17.53
2022-10-19T08:19:49.164Z,10.97
2022-10-19T08:22:17.627Z,12.47
2022-10-19T08:24:46.134Z,8.07
2022-10-19T08:27:15.558Z,11.03
2022-10-19T08:29:45.389Z,6.50
2022-10-19T08:32:13.851Z,19.67
2022-10-19T08:34:42.574Z,9.07
2022-10-19T08:37:20.150Z,8.77
2022-10-19T08:39:54.784Z,8.97
2022-10-19T08:42:33.233Z,12.10
2022-10-19T08:45:33.823Z,6.67
2022-10-19T08:48:24.679Z,6.23
2022-10-19T08:50:55.266Z,27.60
2022-10-19T08:53:34.567Z,8.17
2022-10-19T08:56:38.843Z,6.43
2022-10-19T08:59:23.070Z,7.13
2022-10-19T09:01:56.927Z,5.23
2022-10-19T09:04:32.027Z,5.73
2022-10-19T09:07:24.510Z,6.80
2022-10-19T09:09:58.356Z,4.37
2022-10-19T09:12:39.750Z,3.87
2022-10-19T09:15:15.946Z,4.17
2022-10-19T09:17:45.900Z,5.13
2022-10-19T09:20:21.070Z,7.67
2022-10-19T09:23:02.802Z,6.57
2022-10-19T09:25:34.262Z,10.57
2022-10-19T09:28:17.800Z,6.73
2022-10-19T09:30:48.942Z,5.50
2022-10-19T09:33:31.586Z,4.97
2022-10-19T09:36:03.454Z,4.63
2022-10-19T09:38:32.655Z,4.27
2022-10-19T09:41:17.841Z,5.07
2022-10-19T09:43:54.038Z,7.63
2022-10-19T09:46:38.665Z,7.37
2022-10-19T09:49:08.789Z,7.07
2022-10-19T09:51:58.095Z,9.57
2022-10-19T09:54:35.528Z,4.67
2022-10-19T09:57:07.753Z,4.73
2022-10-19T09:59:38.181Z,4.70
2022-10-19T10:02:18.587Z,10.10
2022-10-19T10:04:56.790Z,6.77
2022-10-19T10:07:35.791Z,4.70
2022-10-19T10:10:13.071Z,5.83
2022-10-19T10:12:42.141Z,5.00
2022-10-19T10:15:18.992Z,4.10
2022-10-19T10:17:50.042Z,7.87
2022-10-19T10:20:28.484Z,5.80
2022-10-19T10:23:01.269Z,6.87
2022-10-19T10:25:34.433Z,4.50
2022-10-19T10:28:25.650Z,6.17
2022-10-19T10:31:01.859Z,5.97
2022-10-19T10:33:44.261Z,5.07
2022-10-19T10:36:15.524Z,5.37
2022-10-19T10:38:51.113Z,4.27
2022-10-19T10:41:23.659Z,9.17
2022-10-19T10:44:00.762Z,5.73
2022-10-19T10:46:38.470Z,3.33
2022-10-19T10:49:17.852Z,4.00
2022-10-19T10:51:53.970Z,5.10
2022-10-19T10:54:25.416Z,6.43
2022-10-19T10:57:13.944Z,5.37
2022-10-19T10:59:55.067Z,3.87
2022-10-19T11:02:49.164Z,7.30
2022-10-19T11:05:25.076Z,4.30
2022-10-19T11:08:04.513Z,5.50
2022-10-19T11:10:40.526Z,8.53
2022-10-19T11:13:42.380Z,6.93
2022-10-19T11:16:17.163Z,4.10
2022-10-19T11:18:53.207Z,8.33
2022-10-19T11:21:32.025Z,6.67
2022-10-19T11:24:18.751Z,7.20
2022-10-19T11:27:05.745Z,4.70
2022-10-19T11:30:03.592Z,6.20
2022-10-19T11:32:52.833Z,5.10
2022-10-19T11:35:40.961Z,6.20
2022-10-19T11:38:35.070Z,6.97
2022-10-19T11:41:30.101Z,5.70
2022-10-19T11:44:29.337Z,5.07
2022-10-19T11:47:20.725Z,3.87
2022-10-19T11:50:04.251Z,22.03
2022-10-19T11:52:46.693Z,3.63
2022-10-19T11:55:32.044Z,7.20
2022-10-19T11:58:19.418Z,5.70
2022-10-19T12:01:02.052Z,4.97
2022-10-19T12:04:07.803Z,5.67
2022-10-19T12:06:47.076Z,4.17
2022-10-19T12:09:35.920Z,9.23
2022-10-19T12:12:25.156Z,7.23
2022-10-19T12:15:06.527Z,7.77
2022-10-19T12:17:40.732Z,11.27
2022-10-19T12:20:21.680Z,7.30
2022-10-19T12:22:51.691Z,5.77
2022-10-19T12:25:22.530Z,3.80
2022-10-19T12:27:52.360Z,8.47
2022-10-19T12:30:25.628Z,6.87
2022-10-19T12:33:13.545Z,4.27
2022-10-19T12:36:02.456Z,10.20
2022-10-19T12:38:50.950Z,6.33
2022-10-19T12:41:44.376Z,9.27
2022-10-19T12:44:42.360Z,5.90
2022-10-19T12:47:21.851Z,9.20
2022-10-19T12:49:52.436Z,5.27
2022-10-19T12:52:44.470Z,6.17
2022-10-19T12:55:43.526Z,6.00
2022-10-19T12:58:22.855Z,6.23
2022-10-19T13:01:01.467Z,7.97
2022-10-19T13:03:36.008Z,6.13
2022-10-19T13:06:20.213Z,7.47
2022-10-19T13:08:58.946Z,8.27
2022-10-19T13:11:28.052Z,11.03
2022-10-19T13:14:04.945Z,8.33
2022-10-19T13:17:08.972Z,6.73
2022-10-19T13:19:41.725Z,12.10
2022-10-19T13:22:29.736Z,7.10
2022-10-19T13:25:31.944Z,4.77
2022-10-19T13:28:37.561Z,7.87
2022-10-19T13:31:26.019Z,5.97
2022-10-19T13:33:56.707Z,6.93
2022-10-19T13:36:32.057Z,8.27
2022-10-19T13:39:08.637Z,5.23
2022-10-19T13:42:01.584Z,6.13
2022-10-19T13:44:39.674Z,4.53
2022-10-19T13:47:41.450Z,7.33
2022-10-19T13:50:35.264Z,5.80
2022-10-19T13:53:28.622Z,8.03
2022-10-19T13:56:19.386Z,5.37
2022-10-19T13:59:33.921Z,5.67
2022-10-19T14:03:24.174Z,5.03
2022-10-19T14:06:18.838Z,4.87
2022-10-19T14:09:25.617Z,6.53
2022-10-19T14:12:07.021Z,9.13
2022-10-19T14:14:43.576Z,6.63
2022-10-19T14:19:57.264Z,6.27
2022-10-19T14:22:41.323Z,6.13
2022-10-19T14:25:21.529Z,5.17
2022-10-19T14:27:59.959Z,8.47
2022-10-19T14:30:32.534Z,6.43
2022-10-19T14:33:08.075Z,5.10
2022-10-19T14:35:41.273Z,4.87
2022-10-19T14:38:20.043Z,5.90
2022-10-19T14:40:49.993Z,11.07
2022-10-19T14:43:23.635Z,8.77
2022-10-19T14:46:13.267Z,5.23
2022-10-19T14:48:45.869Z,6.70
2022-10-19T14:51:33.903Z,8.40
2022-10-19T14:54:09.242Z,7.23
2022-10-19T14:56:49.713Z,5.97
2022-10-19T14:59:26.247Z,7.33
2022-10-19T15:01:58.004Z,6.67
2022-10-19T15:04:31.442Z,6.27
2022-10-19T15:07:04.222Z,8.50
2022-10-19T15:09:48.038Z,7.37
2022-10-19T15:12:24.327Z,6.87
2022-10-19T15:14:53.606Z,8.03
2022-10-19T15:17:32.097Z,6.30
2022-10-19T15:20:02.064Z,8.40
2022-10-19T15:22:41.796Z,6.97
2022-10-19T15:25:37.118Z,10.77
2022-10-19T15:28:36.119Z,7.00
2022-10-19T15:31:16.910Z,12.27
2022-10-19T15:33:51.068Z,9.10
2022-10-19T15:36:22.309Z,7.47
2022-10-19T15:39:17.949Z,7.77
2022-10-19T15:41:54.059Z,9.90
2022-10-19T15:44:41.774Z,11.27
2022-10-19T15:47:25.484Z,11.33
2022-10-19T15:50:02.078Z,11.63
2022-10-19T15:52:34.036Z,13.50
2022-10-19T15:55:03.379Z,10.90
2022-10-19T15:57:35.469Z,16.27
2022-10-19T16:00:16.064Z,14.17
2022-10-19T16:02:45.385Z,23.93
2022-10-19T16:05:14.026Z,22.13
2022-10-19T16:07:43.347Z,22.03
2022-10-19T16:10:18.816Z,18.07
2022-10-19T16:12:47.735Z,12.17
2022-10-19T16:15:23.865Z,9.27
2022-10-19T16:17:55.407Z,11.23
2022-10-19T16:20:25.225Z,14.53
2022-10-19T16:22:54.047Z,10.93
2022-10-19T16:25:22.803Z,8.83
2022-10-19T16:27:51.811Z,12.17
2022-10-19T16:30:24.678Z,10.37
2022-10-19T16:32:53.531Z,9.93
2022-10-19T16:35:22.393Z,7.87
2022-10-19T16:37:51.263Z,9.60
2022-10-19T16:40:19.918Z,9.20
2022-10-19T16:42:49.097Z,9.37
2022-10-19T16:45:18.266Z,11.47
2022-10-19T16:47:51.197Z,9.70
2022-10-19T16:50:20.558Z,8.73
2022-10-19T16:53:11.599Z,10.37
2022-10-19T16:55:42.413Z,8.50
2022-10-19T16:58:13.808Z,10.37
2022-10-19T17:00:42.301Z,10.17
2022-10-19T17:03:12.515Z,9.43
2022-10-19T17:05:41.425Z,12.37
2022-10-19T17:08:11.814Z,9.63
2022-10-19T17:10:44.913Z,9.87
2022-10-19T17:13:13.606Z,10.27
2022-10-19T17:15:43.594Z,7.83
2022-10-19T17:18:14.315Z,12.17
2022-10-19T17:20:43.032Z,8.40
2022-10-19T17:23:12.401Z,8.93
2022-10-19T17:25:49.134Z,8.70
2022-10-19T17:28:17.841Z,8.63
2022-10-19T17:31:06.947Z,11.73
2022-10-19T17:33:38.594Z,11.67
2022-10-19T17:36:10.805Z,8.77
2022-10-19T17:38:40.815Z,9.07
2022-10-19T17:41:12.446Z,9.03
2022-10-19T17:44:07.304Z,12.97
2022-10-19T17:46:37.859Z,10.27
2022-10-19T17:49:33.465Z,10.17
2022-10-19T17:52:02.342Z,8.47
2022-10-19T17:54:36.240Z,14.60
2022-10-19T17:57:15.555Z,10.23
2022-10-19T17:59:54.550Z,16.17
2022-10-19T18:02:23.493Z,12.13
2022-10-19T18:04:53.554Z,9.93
2022-10-19T18:07:25.773Z,9.37
2022-10-19T18:09:54.629Z,10.80
2022-10-19T18:12:23.331Z,8.50
2022-10-19T18:14:52.138Z,9.77
2022-10-19T18:17:24.087Z,10.83
2022-10-19T18:19:57.426Z,10.30
2022-10-19T18:22:26.366Z,12.23
2022-10-19T18:24:55.404Z,15.37
2022-10-19T18:27:24.271Z,14.00
2022-10-19T18:29:56.882Z,13.83
2022-10-19T18:32:25.963Z,12.67
2022-10-19T18:34:54.926Z,11.97
2022-10-19T18:37:25.176Z,10.93
2022-10-19T18:39:54.208Z,10.23
2022-10-19T18:42:23.021Z,12.60
2022-10-19T18:44:51.625Z,9.73
2022-10-19T18:47:20.402Z,11.57
2022-10-19T18:49:49.061Z,12.03
2022-10-19T18:52:18.482Z,11.60
2022-10-19T18:55:18.984Z,11.67
2022-10-19T18:57:47.782Z,10.73
2022-10-19T19:00:26.264Z,10.70
2022-10-19T19:02:56.246Z,11.43
2022-10-19T19:05:25.336Z,11.50
2022-10-19T19:07:55.354Z,10.13
2022-10-19T19:10:25.699Z,11.37
2022-10-19T19:12:54.391Z,11.83
2022-10-19T19:15:30.998Z,13.60
2022-10-19T19:18:24.779Z,15.47
2022-10-19T19:20:53.733Z,12.53
2022-10-19T19:23:22.292Z,14.97
2022-10-19T19:25:52.573Z,14.17
2022-10-19T19:28:21.375Z,15.87
2022-10-19T19:30:50.113Z,13.37
2022-10-19T19:33:18.644Z,11.50
2022-10-19T19:35:50.793Z,12.07
2022-10-19T19:38:19.810Z,12.80
2022-10-19T19:40:48.645Z,12.33
2022-10-19T19:43:20.262Z,13.23
2022-10-19T19:46:00.025Z,14.30
2022-10-19T19:48:30.872Z,16.07
2022-10-19T19:51:00.484Z,14.17
2022-10-19T19:53:29.033Z,13.90
2022-10-19T19:55:57.473Z,14.63
2022-10-19T19:58:27.726Z,12.77
2022-10-19T20:00:56.624Z,13.57
2022-10-19T20:03:25.224Z,15.30
2022-10-19T20:05:53.940Z,13.23
2022-10-19T20:08:22.747Z,14.00
2022-10-19T20:10:51.413Z,13.47
2022-10-19T20:13:20.053Z,13.03
2022-10-19T20:15:50.341Z,14.83
2022-10-19T20:18:18.873Z,13.40
2022-10-19T20:20:47.428Z,13.40
2022-10-19T20:23:16.006Z,16.97
2022-10-19T20:25:44.559Z,14.90
2022-10-19T20:28:13.415Z,16.83
2022-10-19T20:30:44.693Z,15.37
2022-10-19T20:33:14.839Z,17.50
2022-10-19T20:35:43.812Z,15.77
2022-10-19T20:38:12.330Z,14.03
2022-10-19T20:40:41.795Z,14.37
2022-10-19T20:43:11.397Z,17.37
2022-10-19T20:45:40.033Z,17.00
2022-10-19T20:48:08.661Z,15.10
2022-10-19T20:50:39.779Z,13.90
2022-10-19T20:53:09.506Z,16.00
2022-10-19T20:55:38.021Z,16.03
2022-10-19T20:58:06.557Z,12.70
2022-10-19T21:00:41.270Z,13.73
2022-10-19T21:03:09.831Z,15.40
2022-10-19T21:05:40.862Z,17.23
2022-10-19T21:08:10.266Z,15.87
2022-10-19T21:10:39.150Z,19.17
2022-10-19T21:13:07.788Z,16.83
2022-10-19T21:15:36.482Z,16.10
2022-10-19T21:18:05.266Z,17.80
2022-10-19T21:20:33.789Z,17.37
2022-10-19T21:23:03.877Z,19.17
2022-10-19T21:25:58.409Z,15.90
2022-10-19T21:28:26.900Z,19.27
2022-10-19T21:30:55.723Z,17.10
2022-10-19T21:33:27.430Z,17.17
2022-10-19T21:35:55.878Z,18.67
2022-10-19T21:38:26.423Z,18.37
2022-10-19T21:40:59.826Z,18.53
2022-10-19T21:43:29.602Z,18.33
2022-10-19T21:45:58.557Z,17.97
2022-10-19T21:48:27.218Z,21.03
2022-10-19T21:50:55.825Z,20.03
2022-10-19T21:53:26.686Z,19.80
2022-10-19T21:55:55.701Z,20.67
2022-10-19T21:58:24.500Z,17.60
2022-10-19T22:00:53.020Z,17.87
2022-10-19T22:03:21.570Z,17.90
2022-10-19T22:05:54.182Z,19.33
2022-10-19T22:08:22.881Z,21.73
2022-10-19T22:10:53.265Z,25.10
2022-10-19T22:13:22.239Z,22.60
2022-10-19T22:15:50.888Z,26.07
2022-10-19T22:18:19.554Z,22.97
2022-10-19T22:20:48.344Z,22.73
2022-10-19T22:23:17.005Z,26.13
2022-10-19T22:25:45.584Z,26.77
2022-10-19T22:28:15.911Z,25.90
2022-10-19T22:30:45.136Z,21.30
2022-10-19T22:33:14.644Z,25.03
2022-10-19T22:35:43.038Z,22.80
2022-10-19T22:38:11.974Z,23.70
2022-10-19T22:40:40.582Z,25.40
2022-10-19T22:43:29.442Z,22.70
2022-10-19T22:46:33.853Z,25.80
2022-10-19T22:49:38.310Z,24.17
2022-10-19T22:52:25.646Z,27.73
2022-10-19T22:54:54.792Z,32.97
2022-10-19T22:57:23.246Z,26.13
2022-10-19T22:59:53.043Z,25.10
2022-10-19T23:02:21.602Z,24.63
2022-10-19T23:04:53.869Z,27.23
2022-10-19T23:07:22.665Z,24.20
2022-10-19T23:09:51.276Z,25.07
2022-10-19T23:12:19.902Z,28.00
2022-10-19T23:14:48.433Z,28.53
2022-10-19T23:17:18.620Z,25.73
2022-10-19T23:19:47.390Z,25.20
2022-10-19T23:22:40.878Z,27.13
2022-10-19T23:25:10.659Z,28.57
2022-10-19T23:27:39.363Z,27.07
2022-10-19T23:30:09.372Z,27.40
2022-10-19T23:33:04.190Z,27.20
2022-10-19T23:35:32.700Z,27.23
2022-10-19T23:38:01.577Z,26.60
2022-10-19T23:40:30.346Z,27.90
2022-10-19T23:43:00.339Z,27.73
2022-10-19T23:45:29.158Z,25.10
2022-10-19T23:47:59.807Z,24.77
2022-10-19T23:50:30.031Z,24.30
2022-10-19T23:52:58.613Z,22.80
2022-10-19T23:55:27.439Z,25.43
2022-10-19T23:57:56.058Z,23.13
